Time;durP1;ratioP1;P1;durP2;ratioP2;P2;SDS_P1;SDS_P2;PMS_P1;PMS_P2;Temp;Humidity;BMP_temperature;BMP_pressure;BME280_temperature;BME280_humidity;BME280_pressure;Samples;Min_cycle;Max_cycle;Signal;HPM_P1;HPM_P2
2023/06/29 00:01:16;;;;;;;2.08;1.42;;;;;;;16.91;100.00;100792.22;5163323;28;20407;-74
2023/06/29 00:03:46;;;;;;;3.58;1.60;;;;;;;17.01;100.00;100783.66;5161833;28;20396;-74
2023/06/29 00:06:17;;;;;;;3.42;1.40;;;;;;;17.10;100.00;100784.91;5162964;28;20033;-74
2023/06/29 00:08:48;;;;;;;2.42;1.38;;;;;;;17.26;100.00;100789.22;5152358;28;20028;-72
2023/06/29 00:11:18;;;;;;;3.10;1.52;;;;;;;17.10;100.00;100783.16;5167588;28;20034;-74
2023/06/29 00:13:48;;;;;;;5.53;1.70;;;;;;;17.14;100.00;100781.19;5153954;28;20435;-73
2023/06/29 00:16:19;;;;;;;2.55;1.58;;;;;;;17.11;100.00;100787.50;5153188;28;20026;-74
2023/06/29 00:18:54;;;;;;;3.78;1.80;;;;;;;17.02;100.00;100781.91;5170482;28;20022;-73
2023/06/29 00:21:25;;;;;;;3.38;1.83;;;;;;;17.09;100.00;100783.22;5169168;28;20026;-74
2023/06/29 00:23:56;;;;;;;3.38;1.77;;;;;;;17.12;100.00;100791.81;5169065;28;20034;-75
2023/06/29 00:26:28;;;;;;;2.20;1.30;;;;;;;17.25;100.00;100791.94;5174743;28;20414;-74
2023/06/29 00:28:59;;;;;;;3.00;1.40;;;;;;;17.28;100.00;100786.50;5168992;28;20281;-72
2023/06/29 00:31:29;;;;;;;3.13;1.60;;;;;;;17.28;100.00;100797.06;5157914;28;20023;-74
2023/06/29 00:33:59;;;;;;;2.75;1.40;;;;;;;17.45;100.00;100786.38;5166125;28;20534;-73
2023/06/29 00:36:29;;;;;;;3.40;1.40;;;;;;;17.45;100.00;100797.78;5173690;28;20049;-74
2023/06/29 00:39:00;;;;;;;3.97;1.80;;;;;;;17.41;100.00;100793.63;5147059;28;20607;-74
2023/06/29 00:41:30;;;;;;;4.82;1.80;;;;;;;17.33;100.00;100795.00;5164592;28;20305;-74
2023/06/29 00:44:00;;;;;;;3.70;1.42;;;;;;;17.17;100.00;100788.91;5169690;28;20125;-74
2023/06/29 00:46:31;;;;;;;3.60;1.58;;;;;;;17.24;100.00;100793.75;5164537;28;20030;-74
2023/06/29 00:49:01;;;;;;;2.47;1.42;;;;;;;17.25;100.00;100790.16;5154854;28;20057;-72
2023/06/29 00:51:32;;;;;;;3.28;1.63;;;;;;;17.12;100.00;100780.44;5173562;28;20124;-74
2023/06/29 00:54:03;;;;;;;3.97;1.60;;;;;;;17.17;100.00;100781.00;5169670;28;20044;-73
2023/06/29 00:56:34;;;;;;;3.20;1.65;;;;;;;17.29;100.00;100772.34;5168841;28;20077;-74
2023/06/29 00:59:05;;;;;;;3.25;1.55;;;;;;;17.40;100.00;100776.09;5170106;28;20034;-73
2023/06/29 01:01:38;;;;;;;3.58;1.60;;;;;;;17.28;100.00;100773.28;5165310;23;20047;-71
2023/06/29 01:04:09;;;;;;;2.47;1.40;;;;;;;17.31;100.00;100778.38;5129030;28;20038;-71
2023/06/29 01:06:51;;;;;;;2.28;1.25;;;;;;;17.34;100.00;100771.16;5129403;28;20405;-71
2023/06/29 01:09:22;;;;;;;3.63;1.38;;;;;;;17.38;100.00;100761.25;5123393;28;20043;-70
2023/06/29 01:11:53;;;;;;;4.97;1.75;;;;;;;17.49;100.00;100759.66;5142226;28;20210;-71
2023/06/29 01:14:26;;;;;;;3.40;1.58;;;;;;;17.46;100.00;100761.66;5128133;28;20108;-70
2023/06/29 01:16:58;;;;;;;4.90;1.60;;;;;;;17.43;100.00;100753.88;5131317;28;20098;-71
2023/06/29 01:19:31;;;;;;;3.00;1.60;;;;;;;17.39;100.00;100753.25;5127101;28;20061;-71
2023/06/29 01:22:04;;;;;;;4.47;1.77;;;;;;;17.40;100.00;100762.88;5130919;28;20432;-71
2023/06/29 01:24:41;;;;;;;3.13;1.50;;;;;;;17.30;100.00;100752.91;5126809;28;20031;-71
2023/06/29 01:27:12;;;;;;;4.00;1.70;;;;;;;17.30;100.00;100752.91;5126553;28;20082;-70
2023/06/29 01:29:43;;;;;;;13.50;6.10;;;;;;;17.24;100.00;100747.97;5133265;28;20453;-71
2023/06/29 01:32:14;;;;;;;7.10;3.03;;;;;;;17.28;100.00;100749.53;5129520;28;20027;-71
2023/06/29 01:34:44;;;;;;;5.22;1.70;;;;;;;17.00;100.00;100744.16;5126325;28;20034;-70
2023/06/29 01:37:19;;;;;;;3.28;1.70;;;;;;;17.21;100.00;100743.75;5130670;28;20498;-71
2023/06/29 01:39:55;;;;;;;7.90;1.67;;;;;;;17.19;100.00;100745.63;5124162;28;20129;-70
2023/06/29 01:42:29;;;;;;;3.55;1.70;;;;;;;17.39;100.00;100747.09;5125315;28;20429;-71
2023/06/29 01:45:00;;;;;;;5.07;2.00;;;;;;;17.35;100.00;100743.78;5127159;28;20042;-70
2023/06/29 01:47:31;;;;;;;2.97;1.67;;;;;;;17.47;100.00;100742.22;5127667;28;20114;-70
2023/06/29 01:50:03;;;;;;;2.60;1.73;;;;;;;17.53;100.00;100744.47;5127450;28;20029;-70
2023/06/29 01:52:33;;;;;;;6.05;1.98;;;;;;;17.51;100.00;100749.00;5132474;28;20045;-70
2023/06/29 01:55:04;;;;;;;5.68;1.92;;;;;;;17.48;100.00;100746.53;5129276;28;20035;-70
2023/06/29 01:57:34;;;;;;;3.92;1.80;;;;;;;17.53;100.00;100741.81;5125063;28;20210;-71
2023/06/29 02:00:06;;;;;;;4.78;1.50;;;;;;;17.41;100.00;100735.50;5131315;28;20067;-71
2023/06/29 02:02:37;;;;;;;4.65;1.73;;;;;;;17.47;100.00;100736.91;5148033;28;20767;-71
2023/06/29 02:05:08;;;;;;;3.40;1.50;;;;;;;17.35;100.00;100735.84;5156255;28;20038;-70
2023/06/29 02:07:38;;;;;;;3.72;1.60;;;;;;;17.32;100.00;100724.59;5157276;28;20038;-71
2023/06/29 02:10:09;;;;;;;6.35;2.47;;;;;;;17.18;100.00;100733.34;5152297;28;20037;-69
2023/06/29 02:12:40;;;;;;;4.80;1.60;;;;;;;17.18;100.00;100729.88;5151739;28;20105;-70
2023/06/29 02:15:10;;;;;;;5.15;1.80;;;;;;;17.11;100.00;100733.81;5154025;28;20038;-70
2023/06/29 02:17:40;;;;;;;4.32;1.70;;;;;;;17.04;100.00;100733.34;5155441;28;20275;-72
2023/06/29 02:20:11;;;;;;;5.20;1.80;;;;;;;17.20;100.00;100730.63;5149992;28;20036;-70
2023/06/29 02:22:41;;;;;;;4.85;1.90;;;;;;;17.10;100.00;100734.75;5150472;28;20041;-70
2023/06/29 02:25:13;;;;;;;3.60;1.60;;;;;;;17.09;100.00;100727.75;5149141;28;20042;-70
2023/06/29 02:27:44;;;;;;;7.07;1.95;;;;;;;16.99;100.00;100731.91;5152997;28;20079;-70
2023/06/29 02:30:14;;;;;;;4.82;2.17;;;;;;;17.03;100.00;100728.13;5154031;28;20022;-70
2023/06/29 02:32:44;;;;;;;5.63;2.03;;;;;;;17.01;100.00;100720.28;5152177;28;20488;-71
2023/06/29 02:35:15;;;;;;;3.60;1.75;;;;;;;17.11;100.00;100723.25;5152692;28;20044;-71
2023/06/29 02:37:45;;;;;;;5.95;1.77;;;;;;;17.02;100.00;100714.09;5154770;28;20022;-71
2023/06/29 02:40:15;;;;;;;4.07;1.70;;;;;;;16.98;100.00;100722.28;5151747;28;20057;-70
2023/06/29 02:42:46;;;;;;;3.70;1.83;;;;;;;16.96;100.00;100717.09;5134248;28;20033;-71
2023/06/29 02:45:16;;;;;;;5.97;2.00;;;;;;;17.03;100.00;100717.56;5154141;28;20022;-71
2023/06/29 02:47:46;;;;;;;4.60;2.10;;;;;;;16.99;100.00;100716.06;5154602;28;20041;-70
2023/06/29 02:50:16;;;;;;;3.30;1.85;;;;;;;17.07;100.00;100714.66;5152119;28;20568;-71
2023/06/29 02:52:47;;;;;;;6.15;1.90;;;;;;;17.08;100.00;100710.22;5142651;28;20105;-71
2023/06/29 02:55:17;;;;;;;7.40;2.00;;;;;;;17.14;100.00;100718.63;5135907;28;20548;-71
2023/06/29 02:57:47;;;;;;;5.47;2.00;;;;;;;17.04;100.00;100721.91;5145066;28;20026;-71
2023/06/29 03:00:18;;;;;;;3.67;1.83;;;;;;;17.20;100.00;100717.41;5145412;28;20568;-70
2023/06/29 03:02:48;;;;;;;3.90;2.03;;;;;;;17.29;100.00;100716.88;5147803;28;20022;-70
2023/06/29 03:05:18;;;;;;;5.57;1.75;;;;;;;17.21;100.00;100714.69;5149939;28;20126;-70
2023/06/29 03:07:49;;;;;;;4.38;1.88;;;;;;;17.09;100.00;100717.19;5145715;28;20554;-71
2023/06/29 03:10:19;;;;;;;5.43;1.90;;;;;;;17.20;100.00;100720.06;5148890;28;20527;-70
2023/06/29 03:12:49;;;;;;;5.88;1.75;;;;;;;17.17;100.00;100714.97;5126419;28;20035;-71
2023/06/29 03:15:19;;;;;;;4.60;1.80;;;;;;;17.22;100.00;100708.47;5146645;28;20129;-70
2023/06/29 03:17:50;;;;;;;3.13;2.00;;;;;;;17.20;100.00;100704.19;5143398;28;20358;-70
2023/06/29 03:20:20;;;;;;;4.83;2.00;;;;;;;17.28;100.00;100702.78;5148781;28;20323;-71
2023/06/29 03:22:50;;;;;;;5.45;1.90;;;;;;;17.34;100.00;100713.00;5146912;28;20274;-71
2023/06/29 03:25:21;;;;;;;3.10;1.52;;;;;;;17.39;100.00;100710.09;5146313;28;20034;-70
2023/06/29 03:27:51;;;;;;;3.65;1.90;;;;;;;17.48;100.00;100709.53;5141890;28;20037;-71
2023/06/29 03:30:21;;;;;;;4.10;1.73;;;;;;;17.56;100.00;100715.19;5148076;28;20030;-70
2023/06/29 03:32:53;;;;;;;5.70;1.92;;;;;;;17.59;100.00;100709.72;5125397;28;20041;-70
2023/06/29 03:35:23;;;;;;;6.68;1.70;;;;;;;17.55;100.00;100708.22;5150691;28;20093;-70
2023/06/29 03:37:53;;;;;;;4.75;1.80;;;;;;;17.56;100.00;100709.91;5145449;28;20018;-71
2023/06/29 03:40:24;;;;;;;7.80;1.92;;;;;;;17.51;100.00;100709.34;5144673;28;20444;-71
2023/06/29 03:42:54;;;;;;;6.65;1.95;;;;;;;17.51;100.00;100715.47;5147379;28;20035;-71
2023/06/29 03:45:24;;;;;;;3.67;1.63;;;;;;;17.53;100.00;100712.75;5148090;28;20496;-71
2023/06/29 03:47:54;;;;;;;3.83;1.65;;;;;;;17.45;100.00;100709.75;5126027;28;20511;-71
2023/06/29 03:50:25;;;;;;;3.60;1.90;;;;;;;17.36;100.00;100705.00;5147101;28;20030;-71
2023/06/29 03:52:56;;;;;;;7.30;2.60;;;;;;;17.42;100.00;100702.84;5143662;28;20026;-70
2023/06/29 03:55:26;;;;;;;3.90;1.60;;;;;;;17.49;100.00;100698.88;5147233;28;20245;-70
2023/06/29 03:57:57;;;;;;;3.83;1.92;;;;;;;17.55;100.00;100695.00;5145201;28;20097;-71
2023/06/29 04:00:28;;;;;;;2.85;1.70;;;;;;;17.39;100.00;100700.38;5151007;28;20404;-70
2023/06/29 04:02:58;;;;;;;5.18;1.92;;;;;;;17.44;100.00;100705.38;5147797;28;20022;-71
2023/06/29 04:05:28;;;;;;;6.43;1.80;;;;;;;17.47;100.00;100692.81;5147658;28;20062;-71
2023/06/29 04:08:05;;;;;;;3.38;1.50;;;;;;;17.62;100.00;100694.53;5149396;28;20053;-71
2023/06/29 04:10:35;;;;;;;3.88;1.80;;;;;;;17.54;100.00;100694.16;5146184;28;20454;-71
2023/06/29 04:13:05;;;;;;;5.53;1.65;;;;;;;17.72;100.00;100697.44;5151716;28;20113;-71
2023/06/29 04:15:36;;;;;;;4.57;1.90;;;;;;;17.69;100.00;100693.19;5149770;28;20031;-71
2023/06/29 04:18:06;;;;;;;5.63;2.00;;;;;;;17.63;100.00;100698.88;5149622;28;20038;-71
2023/06/29 04:20:36;;;;;;;5.50;1.85;;;;;;;17.58;100.00;100694.81;5149275;28;20026;-70
2023/06/29 04:23:07;;;;;;;4.45;2.03;;;;;;;17.67;100.00;100695.06;5146979;28;21196;-70
2023/06/29 04:25:37;;;;;;;2.83;1.65;;;;;;;17.62;100.00;100701.63;5139256;28;20031;-70
2023/06/29 04:28:09;;;;;;;4.13;1.80;;;;;;;17.70;100.00;100699.34;5142456;28;20030;-71
2023/06/29 04:30:40;;;;;;;7.65;2.22;;;;;;;17.65;100.00;100693.50;5145490;28;20341;-71
2023/06/29 04:33:11;;;;;;;2.78;1.80;;;;;;;17.66;100.00;100688.09;5145776;28;20636;-73
2023/06/29 04:35:43;;;;;;;2.83;1.83;;;;;;;17.68;100.00;100688.00;5149627;28;20035;-72
2023/06/29 04:38:13;;;;;;;2.38;1.65;;;;;;;17.79;100.00;100681.09;5146449;28;20038;-71
2023/06/29 04:40:43;;;;;;;3.63;1.80;;;;;;;17.92;100.00;100689.94;5131101;28;20044;-72
2023/06/29 04:43:14;;;;;;;3.25;1.80;;;;;;;18.07;100.00;100682.81;5146559;28;20029;-72
2023/06/29 04:45:44;;;;;;;4.27;1.97;;;;;;;18.05;100.00;100688.22;5145398;28;20030;-73
2023/06/29 04:48:15;;;;;;;7.63;1.92;;;;;;;18.12;100.00;100686.00;5113954;28;20780;-72
2023/06/29 04:50:45;;;;;;;5.13;1.85;;;;;;;18.09;100.00;100688.84;5143558;28;20459;-71
2023/06/29 04:53:15;;;;;;;3.72;1.85;;;;;;;18.09;100.00;100692.38;5143234;28;20539;-70
2023/06/29 04:55:46;;;;;;;4.35;1.60;;;;;;;18.19;100.00;100697.91;5106931;28;20027;-73
2023/06/29 04:58:16;;;;;;;4.95;1.70;;;;;;;18.36;100.00;100690.59;5121300;28;20121;-72
2023/06/29 05:00:46;;;;;;;4.33;1.70;;;;;;;18.28;100.00;100692.91;5135112;28;20027;-72
2023/06/29 05:03:16;;;;;;;6.07;2.00;;;;;;;18.25;100.00;100692.22;5145111;28;20806;-72
2023/06/29 05:05:47;;;;;;;2.70;1.63;;;;;;;18.45;100.00;100689.13;5143156;28;20422;-71
2023/06/29 05:08:17;;;;;;;5.10;1.98;;;;;;;18.46;100.00;100680.25;5120606;28;20715;-71
2023/06/29 05:10:48;;;;;;;4.70;2.53;;;;;;;18.66;100.00;100677.16;5140582;28;20555;-70
2023/06/29 05:13:18;;;;;;;5.35;1.98;;;;;;;18.78;100.00;100683.28;5134027;28;20046;-72
2023/06/29 05:15:48;;;;;;;5.75;2.20;;;;;;;18.83;100.00;100677.69;5140999;28;20110;-72
2023/06/29 05:18:19;;;;;;;4.40;1.83;;;;;;;18.72;100.00;100672.25;5149779;28;20073;-72
2023/06/29 05:20:49;;;;;;;6.05;1.77;;;;;;;18.82;100.00;100666.28;5139343;28;20281;-71
2023/06/29 05:23:19;;;;;;;3.42;1.90;;;;;;;18.78;100.00;100670.06;5147028;28;20400;-72
2023/06/29 05:25:50;;;;;;;3.35;1.95;;;;;;;18.60;100.00;100672.25;5143189;28;20069;-72
2023/06/29 05:28:20;;;;;;;4.68;1.80;;;;;;;18.73;100.00;100667.81;5141531;28;20034;-73
2023/06/29 05:30:50;;;;;;;2.85;1.70;;;;;;;18.74;100.00;100655.34;5124424;28;20027;-72
2023/06/29 05:33:21;;;;;;;5.05;1.85;;;;;;;18.76;100.00;100671.13;5123509;28;20030;-72
2023/06/29 05:35:51;;;;;;;5.60;2.05;;;;;;;18.67;100.00;100668.25;5139595;28;20496;-71
2023/06/29 05:38:21;;;;;;;4.57;2.00;;;;;;;18.73;100.00;100666.03;5148353;28;20022;-71
2023/06/29 05:40:51;;;;;;;3.63;2.30;;;;;;;18.66;100.00;100661.25;5125454;28;20022;-72
2023/06/29 05:43:22;;;;;;;3.92;2.08;;;;;;;18.80;100.00;100654.91;5148197;28;20565;-72
2023/06/29 05:45:52;;;;;;;3.70;2.30;;;;;;;18.93;100.00;100650.47;5145867;28;20018;-72
2023/06/29 05:48:23;;;;;;;3.43;1.90;;;;;;;18.91;100.00;100651.56;5149558;28;20036;-74
2023/06/29 05:50:53;;;;;;;4.10;2.15;;;;;;;19.01;100.00;100650.81;5148491;28;20770;-72
2023/06/29 05:53:23;;;;;;;4.47;2.10;;;;;;;19.02;100.00;100649.84;5150671;28;20081;-72
2023/06/29 05:55:54;;;;;;;4.55;2.13;;;;;;;19.12;100.00;100664.16;5148845;28;20034;-72
2023/06/29 05:58:24;;;;;;;2.90;2.03;;;;;;;19.11;100.00;100658.97;5150411;28;20456;-72
2023/06/29 06:00:54;;;;;;;3.13;1.83;;;;;;;19.15;100.00;100660.44;5130032;28;20337;-72
2023/06/29 06:03:24;;;;;;;5.78;2.10;;;;;;;19.30;100.00;100656.78;5149247;28;20277;-72
2023/06/29 06:05:55;;;;;;;3.33;2.20;;;;;;;19.58;100.00;100654.72;5146677;28;20042;-72
2023/06/29 06:08:25;;;;;;;4.60;2.28;;;;;;;19.45;100.00;100659.19;5147100;28;20089;-72
2023/06/29 06:10:55;;;;;;;3.70;1.95;;;;;;;19.64;100.00;100653.44;5143283;28;20030;-73
2023/06/29 06:13:25;;;;;;;8.37;2.53;;;;;;;19.79;100.00;100657.66;5146319;28;20253;-72
2023/06/29 06:15:56;;;;;;;5.57;2.07;;;;;;;19.95;99.08;100668.84;5145791;28;20360;-72
2023/06/29 06:18:26;;;;;;;4.10;1.95;;;;;;;19.96;100.00;100666.06;5128660;28;20678;-71
2023/06/29 06:20:56;;;;;;;3.88;2.20;;;;;;;19.95;98.50;100669.69;5148396;28;20031;-72
2023/06/29 06:23:27;;;;;;;5.37;2.20;;;;;;;19.81;99.16;100663.69;5146921;28;20057;-72
2023/06/29 06:25:57;;;;;;;3.73;2.00;;;;;;;19.86;100.00;100659.75;5145371;28;20557;-72
2023/06/29 06:28:27;;;;;;;5.40;2.20;;;;;;;19.86;100.00;100657.09;5146239;28;20293;-72
2023/06/29 06:30:58;;;;;;;4.40;2.05;;;;;;;20.00;100.00;100656.09;5147940;28;20045;-72
2023/06/29 06:33:30;;;;;;;4.60;2.30;;;;;;;19.91;100.00;100657.59;5147381;28;20396;-72
2023/06/29 06:36:02;;;;;;;4.15;2.30;;;;;;;20.05;99.69;100657.47;5131086;28;20030;-72
2023/06/29 06:38:32;;;;;;;3.92;2.33;;;;;;;19.96;100.00;100658.09;5147221;28;20092;-71
2023/06/29 06:41:03;;;;;;;7.10;2.50;;;;;;;20.03;100.00;100650.56;5149312;28;20506;-72
2023/06/29 06:43:33;;;;;;;5.68;2.30;;;;;;;20.05;100.00;100659.28;5144241;28;20035;-71
2023/06/29 06:46:04;;;;;;;5.28;3.00;;;;;;;20.07;100.00;100652.91;5147044;28;20416;-73
2023/06/29 06:48:34;;;;;;;5.05;2.58;;;;;;;20.03;100.00;100655.88;5144144;28;20433;-72
2023/06/29 06:51:11;;;;;;;4.75;2.75;;;;;;;19.99;100.00;100655.22;5146952;28;20289;-72
2023/06/29 06:53:41;;;;;;;5.75;2.50;;;;;;;20.00;100.00;100656.09;5139526;28;20073;-72
2023/06/29 06:56:12;;;;;;;4.15;2.28;;;;;;;20.28;100.00;100653.16;5151405;28;20050;-72
2023/06/29 06:58:43;;;;;;;4.38;2.38;;;;;;;20.20;100.00;100663.47;5147477;28;20030;-72
2023/06/29 07:01:13;;;;;;;5.20;2.50;;;;;;;20.33;100.00;100649.16;5162521;23;20037;-90
2023/06/29 07:03:44;;;;;;;5.03;2.65;;;;;;;20.43;100.00;100652.00;5151040;28;20510;-89
2023/06/29 07:06:14;;;;;;;7.10;3.10;;;;;;;20.56;100.00;100650.97;5156901;28;20021;-90
2023/06/29 07:08:47;;;;;;;5.03;2.30;;;;;;;20.64;100.00;100648.56;5156743;28;20022;-89
2023/06/29 07:11:17;;;;;;;5.88;2.35;;;;;;;20.80;100.00;100649.09;5164263;28;20113;-89
2023/06/29 07:13:47;;;;;;;7.05;2.53;;;;;;;20.81;100.00;100641.03;5145517;28;20125;-92
2023/06/29 07:16:18;;;;;;;5.18;2.33;;;;;;;20.96;100.00;100645.19;5151459;28;20493;-89
2023/06/29 07:19:03;;;;;;;3.47;2.40;;;;;;;21.11;99.21;100638.69;5153298;28;20037;-92
2023/06/29 07:21:34;;;;;;;4.38;2.22;;;;;;;21.23;96.38;100639.53;5149834;28;20022;-89
2023/06/29 07:24:04;;;;;;;4.60;2.42;;;;;;;21.32;95.65;100636.16;5168247;28;20041;-89
2023/06/29 07:26:36;;;;;;;8.57;3.15;;;;;;;21.54;96.24;100631.69;5154275;28;20058;-89
2023/06/29 07:29:10;;;;;;;3.28;2.05;;;;;;;21.67;95.51;100631.56;5153307;28;20069;-89
2023/06/29 07:31:40;;;;;;;4.50;2.28;;;;;;;21.65;94.36;100621.06;5152974;28;20092;-89
2023/06/29 07:34:10;;;;;;;4.22;2.30;;;;;;;21.70;95.25;100620.69;5150039;28;20025;-90
2023/06/29 07:36:43;;;;;;;3.38;2.17;;;;;;;21.99;93.89;100612.03;5148308;28;20033;-89
2023/06/29 07:39:13;;;;;;;3.97;2.40;;;;;;;22.05;91.12;100611.53;5158523;28;20072;-89
2023/06/29 07:41:44;;;;;;;5.75;2.42;;;;;;;21.94;92.14;100608.06;5142228;28;20035;-90
2023/06/29 07:44:17;;;;;;;3.65;2.50;;;;;;;22.01;93.95;100602.09;5149278;28;20405;-90
2023/06/29 07:46:47;;;;;;;5.30;2.38;;;;;;;22.08;93.49;100605.94;5153398;28;20026;-89
2023/06/29 07:49:20;;;;;;;6.30;2.60;;;;;;;22.03;96.00;100596.63;5156791;28;20034;-89
2023/06/29 07:51:50;;;;;;;5.97;2.58;;;;;;;22.08;94.65;100605.94;5173899;28;20030;-89
2023/06/29 07:54:21;;;;;;;6.45;2.55;;;;;;;22.18;93.82;100606.03;5156997;28;20030;-89
2023/06/29 07:56:51;;;;;;;6.47;2.30;;;;;;;22.42;92.61;100604.03;5175775;28;20026;-90
2023/06/29 07:59:22;;;;;;;4.97;2.33;;;;;;;22.41;90.70;100613.00;5153967;28;20089;-89
2023/06/29 08:01:53;;;;;;;5.40;2.60;;;;;;;22.54;88.29;100595.00;5155488;28;20032;-89
2023/06/29 08:04:23;;;;;;;5.28;2.35;;;;;;;22.46;91.51;100600.13;5153128;28;20029;-89
2023/06/29 08:06:54;;;;;;;5.45;2.17;;;;;;;22.57;90.61;100592.94;5143490;28;20017;-89
2023/06/29 08:09:24;;;;;;;6.25;2.45;;;;;;;22.63;92.27;100602.22;5149451;28;20114;-89
2023/06/29 08:11:55;;;;;;;6.05;2.78;;;;;;;22.64;89.90;100583.47;5153045;28;20057;-90
2023/06/29 08:14:25;;;;;;;4.15;2.28;;;;;;;22.86;89.21;100588.63;5156633;28;20022;-89
2023/06/29 08:16:56;;;;;;;6.45;2.60;;;;;;;23.21;88.64;100589.94;5156896;28;20146;-90
2023/06/29 08:19:26;;;;;;;5.07;2.55;;;;;;;23.22;85.14;100594.31;5152558;28;20109;-90
2023/06/29 08:21:57;;;;;;;11.18;3.42;;;;;;;23.20;85.22;100598.94;5162537;28;20033;-89
2023/06/29 08:24:29;;;;;;;8.27;3.35;;;;;;;23.56;81.61;100586.88;5154864;28;20088;-89
2023/06/29 08:27:00;;;;;;;6.78;2.92;;;;;;;23.32;85.50;100587.19;5158849;28;20485;-89
2023/06/29 08:29:30;;;;;;;9.52;3.50;;;;;;;23.71;82.98;100583.66;5167719;28;20033;-89
2023/06/29 08:32:00;;;;;;;9.05;3.67;;;;;;;23.56;82.40;100585.03;5157843;28;20100;-89
2023/06/29 08:34:31;;;;;;;10.32;3.13;;;;;;;24.46;80.81;100590.09;5157379;28;20038;-90
2023/06/29 08:37:02;;;;;;;8.70;3.63;;;;;;;24.00;81.67;100587.25;5156383;28;20026;-89
2023/06/29 08:39:32;;;;;;;8.32;3.17;;;;;;;24.06;80.81;100586.69;5157829;28;20544;-90
2023/06/29 08:42:06;;;;;;;5.70;3.10;;;;;;;24.01;79.84;100582.78;5165490;28;20060;-89
2023/06/29 08:44:37;;;;;;;5.78;2.63;;;;;;;24.90;80.82;100584.13;5146258;28;20026;-89
2023/06/29 08:47:08;;;;;;;8.52;3.10;;;;;;;24.91;78.95;100578.63;5160347;28;20036;-89
2023/06/29 08:49:41;;;;;;;10.57;3.72;;;;;;;24.76;78.66;100572.06;5163574;28;20449;-90
2023/06/29 08:52:17;;;;;;;5.78;3.03;;;;;;;25.33;81.02;100581.75;5155259;28;20022;-90
2023/06/29 08:54:48;;;;;;;;;;;;;;;25.46;77.92;100574.25;5147602;28;20033;-92
2023/06/29 08:57:19;;;;;;;9.18;3.25;;;;;;;25.02;78.51;100574.94;5147011;28;19914;-89
2023/06/29 08:59:50;;;;;;;10.57;3.13;;;;;;;25.12;77.13;100578.44;5157536;28;20034;-89
2023/06/29 09:02:21;;;;;;;6.28;2.75;;;;;;;26.44;74.58;100578.63;5153341;28;20033;-89
2023/06/29 09:04:51;;;;;;;10.00;3.58;;;;;;;27.13;70.79;100570.44;5148829;28;20031;-89
2023/06/29 09:07:23;;;;;;;8.40;3.20;;;;;;;27.15;70.39;100565.78;5167691;28;20027;-89
2023/06/29 09:09:56;;;;;;;7.45;3.13;;;;;;;27.07;70.70;100568.38;5149058;28;20134;-89
2023/06/29 09:12:30;;;;;;;6.80;3.30;;;;;;;28.40;68.26;100569.19;5154544;28;20076;-90
2023/06/29 09:15:12;;;;;;;8.85;3.90;;;;;;;27.79;67.84;100576.78;5156011;28;20006;-90
2023/06/29 09:17:53;;;;;;;7.78;3.80;;;;;;;28.39;65.76;100564.84;5164360;28;20437;-90
2023/06/29 09:20:41;;;;;;;7.82;3.80;;;;;;;27.78;66.54;100564.38;5155603;28;20032;-88
2023/06/29 09:23:13;;;;;;;8.75;3.80;;;;;;;29.55;63.82;100565.97;5154371;28;20030;-90
2023/06/29 09:25:45;;;;;;;9.00;4.07;;;;;;;30.02;63.64;100561.31;5150354;28;20113;-89
2023/06/29 09:28:15;;;;;;;9.40;4.30;;;;;;;28.78;66.43;100571.19;5159139;28;20046;-91
2023/06/29 09:30:46;;;;;;;9.80;4.85;;;;;;;29.11;66.81;100570.13;5162644;28;20264;-90
2023/06/29 09:33:21;;;;;;;9.20;4.63;;;;;;;30.30;62.20;100562.47;5144652;28;20489;-90
2023/06/29 09:35:54;;;;;;;12.30;5.43;;;;;;;30.15;64.04;100569.69;5156994;28;20018;-89
2023/06/29 09:38:29;;;;;;;8.85;4.18;;;;;;;30.12;64.56;100564.66;5155176;28;20121;-90
2023/06/29 09:41:10;;;;;;;;;;;;;;;;;;;;;
2023/06/29 09:43:40;;;;;;;8.07;4.00;;;;;;;30.18;63.63;100559.38;5176136;28;20057;-90
2023/06/29 09:46:12;;;;;;;10.68;4.68;;;;;;;28.83;65.22;100558.03;5150125;28;20018;-90
2023/06/29 09:48:47;;;;;;;10.40;4.30;;;;;;;28.61;68.22;100555.25;5169324;28;20026;-91
2023/06/29 09:51:22;;;;;;;14.23;6.95;;;;;;;28.75;65.45;100550.00;5157873;28;20134;-89
2023/06/29 09:53:52;;;;;;;15.20;8.00;;;;;;;28.47;66.67;100542.47;5157415;28;20041;-90
2023/06/29 09:56:23;;;;;;;18.83;7.68;;;;;;;29.08;65.19;100541.69;5170904;28;20030;-90
2023/06/29 09:58:56;;;;;;;10.63;6.35;;;;;;;29.25;65.57;100542.50;5146088;28;20061;-90
2023/06/29 10:01:29;;;;;;;13.68;7.00;;;;;;;28.61;64.71;100548.00;5151067;28;20080;-88
2023/06/29 10:04:00;;;;;;;12.93;7.53;;;;;;;28.25;65.53;100543.94;5133693;28;20039;-90
2023/06/29 10:06:37;;;;;;;17.25;7.10;;;;;;;27.72;66.97;100554.28;5153778;28;20037;-90
2023/06/29 10:09:10;;;;;;;13.88;7.18;;;;;;;28.09;67.04;100541.25;5151260;28;20107;-90
2023/06/29 10:11:42;;;;;;;12.55;6.68;;;;;;;28.33;69.24;100543.13;5137677;28;20634;-90
2023/06/29 10:14:13;;;;;;;12.00;6.07;;;;;;;28.12;69.03;100540.91;5148436;28;20042;-89
2023/06/29 10:16:53;;;;;;;13.13;6.72;;;;;;;28.26;67.14;100537.56;5150577;28;20032;-89
2023/06/29 10:19:25;;;;;;;11.70;6.75;;;;;;;28.39;67.14;100531.69;5164485;28;20394;-89
2023/06/29 10:22:03;;;;;;;13.90;6.90;;;;;;;27.50;68.80;100522.63;5148198;28;20033;-90
2023/06/29 10:24:39;;;;;;;15.55;6.95;;;;;;;27.90;68.34;100522.75;5169049;28;20223;-91
2023/06/29 10:27:11;;;;;;;12.65;6.78;;;;;;;27.41;69.55;100522.78;5148343;28;20128;-91
2023/06/29 10:29:50;;;;;;;12.95;7.00;;;;;;;27.97;71.94;100517.56;5145427;28;20111;-90
2023/06/29 10:32:35;;;;;;;11.65;6.38;;;;;;;27.82;72.04;100522.72;5146598;28;20045;-90
2023/06/29 10:35:12;;;;;;;13.65;6.22;;;;;;;27.32;70.79;100513.84;5145669;28;20810;-90
2023/06/29 10:37:59;;;;;;;10.48;5.78;;;;;;;28.31;69.94;100519.09;5147138;28;20565;-91
2023/06/29 10:40:53;;;;;;;11.68;6.60;;;;;;;26.98;71.51;100514.81;5165404;28;20045;-90
2023/06/29 10:44:04;;;;;;;11.70;5.88;;;;;;;27.41;73.76;100520.09;5137120;28;20038;-91
2023/06/29 10:47:04;;;;;;;12.80;5.63;;;;;;;27.68;70.44;100517.97;5144227;28;20109;-89
2023/06/29 10:49:38;;;;;;;14.75;6.13;;;;;;;27.92;69.66;100520.72;5133728;28;20061;-90
2023/06/29 10:52:08;;;;;;;12.70;5.88;;;;;;;27.76;70.02;100525.25;5147651;28;20052;-90
2023/06/29 10:54:39;;;;;;;13.43;6.35;;;;;;;27.33;72.01;100515.53;5156280;28;20018;-90
2023/06/29 10:57:10;;;;;;;13.45;6.10;;;;;;;27.71;70.23;100517.69;5154610;28;20030;-90
2023/06/29 10:59:41;;;;;;;12.23;6.20;;;;;;;27.64;70.12;100511.22;5152277;28;20041;-90
2023/06/29 11:02:15;;;;;;;14.52;6.65;;;;;;;26.82;71.58;100522.78;5148294;28;20029;-89
2023/06/29 11:04:49;;;;;;;13.07;6.40;;;;;;;26.95;71.62;100509.78;5147259;28;20029;-89
2023/06/29 11:07:21;;;;;;;14.73;6.88;;;;;;;27.03;71.96;100507.13;5167601;28;20117;-90
2023/06/29 11:10:01;;;;;;;14.02;7.72;;;;;;;27.41;69.77;100512.84;5148399;28;20562;-89
2023/06/29 11:12:37;;;;;;;16.83;8.70;;;;;;;27.20;69.91;100504.41;5141828;28;20820;-89
2023/06/29 11:15:10;;;;;;;;;;;;;;;27.78;70.05;100507.13;5146922;28;21800;-89
2023/06/29 11:17:45;;;;;;;15.23;8.02;;;;;;;28.03;70.09;100500.75;5142959;28;19917;-90
2023/06/29 11:20:28;;;;;;;17.38;8.52;;;;;;;27.78;71.49;100504.44;5149505;28;20066;-89
2023/06/29 11:22:59;;;;;;;14.85;7.60;;;;;;;27.68;70.74;100501.00;5160188;28;20121;-89
2023/06/29 11:25:30;;;;;;;14.00;7.57;;;;;;;27.28;68.71;100491.00;5158470;28;20034;-90
2023/06/29 11:28:01;;;;;;;16.13;8.15;;;;;;;27.68;68.07;100483.06;5147169;28;20803;-90
2023/06/29 11:30:31;;;;;;;16.15;7.88;;;;;;;27.90;67.88;100489.63;5155769;28;20482;-90
2023/06/29 11:33:02;;;;;;;12.75;7.20;;;;;;;27.72;66.31;100495.19;5147926;28;20413;-89
2023/06/29 11:35:32;;;;;;;16.88;7.50;;;;;;;27.78;69.40;100486.44;5166024;28;20057;-90
2023/06/29 11:38:05;;;;;;;15.18;7.32;;;;;;;27.10;71.00;100490.25;5146741;28;20512;-90
2023/06/29 11:40:36;;;;;;;12.63;6.88;;;;;;;27.51;69.41;100491.22;5146501;28;20030;-89